sensor_id;sensor_type;location;lat;lon;timestamp;temperature;humidity
8945;DHT22;4507;40.232;29.132;2023-04-04T00:00:10;15.30;89.50
8945;DHT22;4507;40.232;29.132;2023-04-04T00:02:39;15.30;89.50
8945;DHT22;4507;40.232;29.132;2023-04-04T00:05:10;15.30;89.50
8945;DHT22;4507;40.232;29.132;2023-04-04T00:07:39;15.30;89.40
8945;DHT22;4507;40.232;29.132;2023-04-04T00:10:08;15.30;89.40
8945;DHT22;4507;40.232;29.132;2023-04-04T00:12:37;15.30;89.30
8945;DHT22;4507;40.232;29.132;2023-04-04T00:15:07;15.20;89.20
8945;DHT22;4507;40.232;29.132;2023-04-04T00:17:36;15.20;88.70
8945;DHT22;4507;40.232;29.132;2023-04-04T00:20:06;15.20;88.60
8945;DHT22;4507;40.232;29.132;2023-04-04T00:22:37;15.20;88.60
8945;DHT22;4507;40.232;29.132;2023-04-04T00:25:06;15.30;88.40
8945;DHT22;4507;40.232;29.132;2023-04-04T00:27:36;15.30;88.00
8945;DHT22;4507;40.232;29.132;2023-04-04T00:30:06;15.40;87.70
8945;DHT22;4507;40.232;29.132;2023-04-04T00:32:35;15.40;87.20
8945;DHT22;4507;40.232;29.132;2023-04-04T00:35:04;15.50;86.50
8945;DHT22;4507;40.232;29.132;2023-04-04T00:37:50;15.60;85.60
8945;DHT22;4507;40.232;29.132;2023-04-04T00:40:19;15.70;84.20
8945;DHT22;4507;40.232;29.132;2023-04-04T00:42:49;15.80;84.10
8945;DHT22;4507;40.232;29.132;2023-04-04T00:45:18;15.90;83.40
8945;DHT22;4507;40.232;29.132;2023-04-04T00:47:48;16.00;82.80
8945;DHT22;4507;40.232;29.132;2023-04-04T00:50:18;16.00;82.00
8945;DHT22;4507;40.232;29.132;2023-04-04T00:52:50;16.10;81.30
8945;DHT22;4507;40.232;29.132;2023-04-04T00:55:19;16.20;81.00
8945;DHT22;4507;40.232;29.132;2023-04-04T00:57:48;16.20;81.00
8945;DHT22;4507;40.232;29.132;2023-04-04T01:00:18;16.20;80.90
8945;DHT22;4507;40.232;29.132;2023-04-04T01:02:47;16.20;80.20
8945;DHT22;4507;40.232;29.132;2023-04-04T01:05:16;16.20;80.00
8945;DHT22;4507;40.232;29.132;2023-04-04T01:07:45;16.20;79.90
8945;DHT22;4507;40.232;29.132;2023-04-04T01:10:34;16.20;80.00
8945;DHT22;4507;40.232;29.132;2023-04-04T01:13:04;16.20;80.10
8945;DHT22;4507;40.232;29.132;2023-04-04T01:15:33;16.20;80.30
8945;DHT22;4507;40.232;29.132;2023-04-04T01:18:03;16.20;80.50
8945;DHT22;4507;40.232;29.132;2023-04-04T01:20:38;16.10;80.80
8945;DHT22;4507;40.232;29.132;2023-04-04T01:23:10;15.90;81.20
8945;DHT22;4507;40.232;29.132;2023-04-04T01:25:40;15.80;81.80
8945;DHT22;4507;40.232;29.132;2023-04-04T01:28:13;15.70;82.40
8945;DHT22;4507;40.232;29.132;2023-04-04T01:30:44;15.60;83.00
8945;DHT22;4507;40.232;29.132;2023-04-04T01:33:19;15.50;83.70
8945;DHT22;4507;40.232;29.132;2023-04-04T01:35:56;15.30;84.50
8945;DHT22;4507;40.232;29.132;2023-04-04T01:38:32;15.20;85.30
8945;DHT22;4507;40.232;29.132;2023-04-04T01:41:08;15.10;86.00
8945;DHT22;4507;40.232;29.132;2023-04-04T01:43:44;15.00;87.00
8945;DHT22;4507;40.232;29.132;2023-04-04T01:46:16;14.80;87.80
8945;DHT22;4507;40.232;29.132;2023-04-04T01:48:48;14.70;88.70
8945;DHT22;4507;40.232;29.132;2023-04-04T01:51:22;14.60;89.50
8945;DHT22;4507;40.232;29.132;2023-04-04T01:53:52;14.50;90.20
8945;DHT22;4507;40.232;29.132;2023-04-04T01:56:22;14.50;90.60
8945;DHT22;4507;40.232;29.132;2023-04-04T01:58:52;14.40;90.90
8945;DHT22;4507;40.232;29.132;2023-04-04T02:01:21;14.30;91.20
8945;DHT22;4507;40.232;29.132;2023-04-04T02:03:51;14.30;91.60
8945;DHT22;4507;40.232;29.132;2023-04-04T02:06:20;14.20;91.90
8945;DHT22;4507;40.232;29.132;2023-04-04T02:08:49;14.20;92.60
8945;DHT22;4507;40.232;29.132;2023-04-04T02:11:18;14.10;92.60
8945;DHT22;4507;40.232;29.132;2023-04-04T02:13:51;14.10;92.90
8945;DHT22;4507;40.232;29.132;2023-04-04T02:16:20;14.10;93.20
8945;DHT22;4507;40.232;29.132;2023-04-04T02:18:50;14.00;93.40
8945;DHT22;4507;40.232;29.132;2023-04-04T02:21:19;14.00;93.60
8945;DHT22;4507;40.232;29.132;2023-04-04T02:23:49;14.00;93.90
8945;DHT22;4507;40.232;29.132;2023-04-04T02:26:19;13.90;94.10
8945;DHT22;4507;40.232;29.132;2023-04-04T02:28:49;13.90;94.30
8945;DHT22;4507;40.232;29.132;2023-04-04T02:31:19;13.90;94.60
8945;DHT22;4507;40.232;29.132;2023-04-04T02:33:49;13.90;94.80
8945;DHT22;4507;40.232;29.132;2023-04-04T02:36:20;13.90;95.00
8945;DHT22;4507;40.232;29.132;2023-04-04T02:38:51;13.90;95.20
8945;DHT22;4507;40.232;29.132;2023-04-04T02:41:23;13.90;95.40
8945;DHT22;4507;40.232;29.132;2023-04-04T02:43:52;13.90;95.60
8945;DHT22;4507;40.232;29.132;2023-04-04T02:46:23;13.90;95.80
8945;DHT22;4507;40.232;29.132;2023-04-04T02:48:58;13.80;95.90
8945;DHT22;4507;40.232;29.132;2023-04-04T02:51:29;13.80;96.10
8945;DHT22;4507;40.232;29.132;2023-04-04T02:54:00;13.80;96.20
8945;DHT22;4507;40.232;29.132;2023-04-04T02:56:37;13.80;96.30
8945;DHT22;4507;40.232;29.132;2023-04-04T02:59:06;13.80;96.50
8945;DHT22;4507;40.232;29.132;2023-04-04T03:01:54;13.80;96.60
8945;DHT22;4507;40.232;29.132;2023-04-04T03:04:24;13.70;96.70
8945;DHT22;4507;40.232;29.132;2023-04-04T03:06:53;13.70;96.90
8945;DHT22;4507;40.232;29.132;2023-04-04T03:09:22;13.70;97.00
8945;DHT22;4507;40.232;29.132;2023-04-04T03:11:51;13.70;97.20
8945;DHT22;4507;40.232;29.132;2023-04-04T03:14:20;13.70;97.40
8945;DHT22;4507;40.232;29.132;2023-04-04T03:16:49;13.70;97.60
8945;DHT22;4507;40.232;29.132;2023-04-04T03:19:20;13.70;97.80
8945;DHT22;4507;40.232;29.132;2023-04-04T03:21:51;13.70;98.00
8945;DHT22;4507;40.232;29.132;2023-04-04T03:24:20;13.70;98.20
8945;DHT22;4507;40.232;29.132;2023-04-04T03:26:51;13.70;98.30
8945;DHT22;4507;40.232;29.132;2023-04-04T03:29:20;13.70;98.50
8945;DHT22;4507;40.232;29.132;2023-04-04T03:31:50;13.70;98.70
8945;DHT22;4507;40.232;29.132;2023-04-04T03:34:23;13.70;98.80
8945;DHT22;4507;40.232;29.132;2023-04-04T03:37:18;13.80;99.10
8945;DHT22;4507;40.232;29.132;2023-04-04T03:39:48;13.80;99.20
8945;DHT22;4507;40.232;29.132;2023-04-04T03:42:17;13.80;99.40
8945;DHT22;4507;40.232;29.132;2023-04-04T03:44:47;13.80;99.60
8945;DHT22;4507;40.232;29.132;2023-04-04T03:47:26;13.80;99.70
8945;DHT22;4507;40.232;29.132;2023-04-04T03:49:58;13.90;99.90
8945;DHT22;4507;40.232;29.132;2023-04-04T03:52:28;13.90;99.90
8945;DHT22;4507;40.232;29.132;2023-04-04T03:54:57;13.90;99.90
8945;DHT22;4507;40.232;29.132;2023-04-04T03:57:26;13.90;99.90
8945;DHT22;4507;40.232;29.132;2023-04-04T03:59:55;13.90;99.90
8945;DHT22;4507;40.232;29.132;2023-04-04T04:02:24;14.00;99.90
8945;DHT22;4507;40.232;29.132;2023-04-04T04:04:53;14.00;99.90
8945;DHT22;4507;40.232;29.132;2023-04-04T04:07:25;14.00;99.90
8945;DHT22;4507;40.232;29.132;2023-04-04T04:09:54;14.00;99.90
8945;DHT22;4507;40.232;29.132;2023-04-04T04:12:23;13.90;99.90
8945;DHT22;4507;40.232;29.132;2023-04-04T04:14:52;13.90;99.90
8945;DHT22;4507;40.232;29.132;2023-04-04T04:17:21;13.90;99.90
8945;DHT22;4507;40.232;29.132;2023-04-04T04:19:50;13.90;99.90
8945;DHT22;4507;40.232;29.132;2023-04-04T04:22:20;13.80;99.90
8945;DHT22;4507;40.232;29.132;2023-04-04T04:24:50;13.80;99.90
8945;DHT22;4507;40.232;29.132;2023-04-04T04:27:19;13.80;99.90
8945;DHT22;4507;40.232;29.132;2023-04-04T04:29:48;13.70;99.90
8945;DHT22;4507;40.232;29.132;2023-04-04T04:32:17;13.70;99.90
8945;DHT22;4507;40.232;29.132;2023-04-04T04:34:50;13.70;99.90
8945;DHT22;4507;40.232;29.132;2023-04-04T04:37:24;13.70;99.90
8945;DHT22;4507;40.232;29.132;2023-04-04T04:39:57;13.70;99.90
8945;DHT22;4507;40.232;29.132;2023-04-04T04:42:35;13.70;99.90
8945;DHT22;4507;40.232;29.132;2023-04-04T04:45:05;13.80;99.90
8945;DHT22;4507;40.232;29.132;2023-04-04T04:47:37;13.80;99.90
8945;DHT22;4507;40.232;29.132;2023-04-04T04:50:08;13.80;99.90
8945;DHT22;4507;40.232;29.132;2023-04-04T04:52:43;13.80;99.90
8945;DHT22;4507;40.232;29.132;2023-04-04T04:55:17;13.80;99.90
8945;DHT22;4507;40.232;29.132;2023-04-04T04:58:00;13.90;99.90
8945;DHT22;4507;40.232;29.132;2023-04-04T05:00:31;13.90;99.90
8945;DHT22;4507;40.232;29.132;2023-04-04T05:03:00;13.90;99.90
8945;DHT22;4507;40.232;29.132;2023-04-04T05:05:47;13.90;99.90
8945;DHT22;4507;40.232;29.132;2023-04-04T05:08:16;13.90;99.90
8945;DHT22;4507;40.232;29.132;2023-04-04T05:11:08;13.90;99.90
8945;DHT22;4507;40.232;29.132;2023-04-04T05:13:39;13.80;99.90
8945;DHT22;4507;40.232;29.132;2023-04-04T05:16:09;13.80;99.90
8945;DHT22;4507;40.232;29.132;2023-04-04T05:18:38;13.80;99.90
8945;DHT22;4507;40.232;29.132;2023-04-04T05:21:10;13.80;99.90
8945;DHT22;4507;40.232;29.132;2023-04-04T05:23:39;13.90;99.90
8945;DHT22;4507;40.232;29.132;2023-04-04T05:26:10;13.90;99.90
8945;DHT22;4507;40.232;29.132;2023-04-04T05:28:39;13.90;99.90
8945;DHT22;4507;40.232;29.132;2023-04-04T05:31:08;13.90;99.90
8945;DHT22;4507;40.232;29.132;2023-04-04T05:33:37;13.90;99.90
8945;DHT22;4507;40.232;29.132;2023-04-04T05:36:12;13.90;99.90
8945;DHT22;4507;40.232;29.132;2023-04-04T05:38:49;13.90;99.90
8945;DHT22;4507;40.232;29.132;2023-04-04T05:41:23;14.00;99.90
8945;DHT22;4507;40.232;29.132;2023-04-04T05:43:56;14.00;99.90
8945;DHT22;4507;40.232;29.132;2023-04-04T05:46:26;14.10;99.90
8945;DHT22;4507;40.232;29.132;2023-04-04T05:48:56;14.20;99.90
8945;DHT22;4507;40.232;29.132;2023-04-04T05:51:26;14.20;99.90
8945;DHT22;4507;40.232;29.132;2023-04-04T05:54:05;14.20;99.90
8945;DHT22;4507;40.232;29.132;2023-04-04T05:56:37;14.20;99.90
8945;DHT22;4507;40.232;29.132;2023-04-04T05:59:14;14.20;99.90
8945;DHT22;4507;40.232;29.132;2023-04-04T06:01:55;14.20;99.90
8945;DHT22;4507;40.232;29.132;2023-04-04T06:04:24;14.30;99.90
8945;DHT22;4507;40.232;29.132;2023-04-04T06:06:56;14.30;99.90
8945;DHT22;4507;40.232;29.132;2023-04-04T06:09:25;14.30;99.90
8945;DHT22;4507;40.232;29.132;2023-04-04T06:11:57;14.30;99.90
8945;DHT22;4507;40.232;29.132;2023-04-04T06:14:30;14.30;99.90
8945;DHT22;4507;40.232;29.132;2023-04-04T06:17:08;14.40;99.90
8945;DHT22;4507;40.232;29.132;2023-04-04T06:19:38;14.40;99.90
8945;DHT22;4507;40.232;29.132;2023-04-04T06:22:07;14.50;99.90
8945;DHT22;4507;40.232;29.132;2023-04-04T06:24:42;14.70;99.90
8945;DHT22;4507;40.232;29.132;2023-04-04T06:27:13;14.80;99.90
8945;DHT22;4507;40.232;29.132;2023-04-04T06:29:45;14.90;99.90
8945;DHT22;4507;40.232;29.132;2023-04-04T06:32:19;14.90;99.90
8945;DHT22;4507;40.232;29.132;2023-04-04T06:34:48;15.10;99.90
8945;DHT22;4507;40.232;29.132;2023-04-04T06:37:27;15.10;99.90
8945;DHT22;4507;40.232;29.132;2023-04-04T06:40:08;15.10;99.90
8945;DHT22;4507;40.232;29.132;2023-04-04T06:42:57;15.10;99.90
8945;DHT22;4507;40.232;29.132;2023-04-04T06:45:33;15.20;99.90
8945;DHT22;4507;40.232;29.132;2023-04-04T06:48:03;15.30;99.90
8945;DHT22;4507;40.232;29.132;2023-04-04T06:50:33;15.60;99.90
8945;DHT22;4507;40.232;29.132;2023-04-04T06:53:05;15.90;99.90
8945;DHT22;4507;40.232;29.132;2023-04-04T06:55:35;16.10;99.90
8945;DHT22;4507;40.232;29.132;2023-04-04T06:58:06;16.30;99.90
8945;DHT22;4507;40.232;29.132;2023-04-04T07:00:35;16.30;99.90
8945;DHT22;4507;40.232;29.132;2023-04-04T07:03:05;16.40;99.90
8945;DHT22;4507;40.232;29.132;2023-04-04T07:05:41;16.40;99.90
8945;DHT22;4507;40.232;29.132;2023-04-04T07:08:13;16.50;99.90
8945;DHT22;4507;40.232;29.132;2023-04-04T07:10:43;16.60;99.90
8945;DHT22;4507;40.232;29.132;2023-04-04T07:13:13;16.70;99.90
8945;DHT22;4507;40.232;29.132;2023-04-04T07:15:45;16.90;99.90
8945;DHT22;4507;40.232;29.132;2023-04-04T07:18:16;17.00;99.90
8945;DHT22;4507;40.232;29.132;2023-04-04T07:20:45;17.20;99.90
8945;DHT22;4507;40.232;29.132;2023-04-04T07:23:14;17.30;99.90
8945;DHT22;4507;40.232;29.132;2023-04-04T07:25:43;17.40;99.90
8945;DHT22;4507;40.232;29.132;2023-04-04T07:28:14;17.40;99.90
8945;DHT22;4507;40.232;29.132;2023-04-04T07:30:43;17.40;99.30
8945;DHT22;4507;40.232;29.132;2023-04-04T07:33:12;17.30;98.70
8945;DHT22;4507;40.232;29.132;2023-04-04T07:35:40;17.10;98.30
8945;DHT22;4507;40.232;29.132;2023-04-04T07:38:10;17.00;98.00
8945;DHT22;4507;40.232;29.132;2023-04-04T07:40:39;16.90;98.00
8945;DHT22;4507;40.232;29.132;2023-04-04T07:43:08;16.80;98.00
8945;DHT22;4507;40.232;29.132;2023-04-04T07:45:39;16.70;97.70
8945;DHT22;4507;40.232;29.132;2023-04-04T07:48:08;16.50;97.20
8945;DHT22;4507;40.232;29.132;2023-04-04T07:50:37;16.50;97.20
8945;DHT22;4507;40.232;29.132;2023-04-04T07:53:06;16.40;96.80
8945;DHT22;4507;40.232;29.132;2023-04-04T07:55:35;16.30;96.70
8945;DHT22;4507;40.232;29.132;2023-04-04T07:58:04;16.20;96.70
8945;DHT22;4507;40.232;29.132;2023-04-04T08:00:35;16.10;96.70
8945;DHT22;4507;40.232;29.132;2023-04-04T08:03:10;16.10;96.60
8945;DHT22;4507;40.232;29.132;2023-04-04T08:05:40;16.10;96.30
8945;DHT22;4507;40.232;29.132;2023-04-04T08:08:09;16.10;96.20
8945;DHT22;4507;40.232;29.132;2023-04-04T08:10:38;16.00;96.50
8945;DHT22;4507;40.232;29.132;2023-04-04T08:13:08;16.10;96.90
8945;DHT22;4507;40.232;29.132;2023-04-04T08:15:37;16.10;97.00
8945;DHT22;4507;40.232;29.132;2023-04-04T08:18:08;16.20;97.00
8945;DHT22;4507;40.232;29.132;2023-04-04T08:20:37;16.20;97.20
8945;DHT22;4507;40.232;29.132;2023-04-04T08:23:07;16.30;97.10
8945;DHT22;4507;40.232;29.132;2023-04-04T08:25:36;16.30;96.80
8945;DHT22;4507;40.232;29.132;2023-04-04T08:28:05;16.30;96.70
8945;DHT22;4507;40.232;29.132;2023-04-04T08:30:34;16.40;96.70
8945;DHT22;4507;40.232;29.132;2023-04-04T08:33:04;16.40;96.40
8945;DHT22;4507;40.232;29.132;2023-04-04T08:35:40;16.40;96.30
8945;DHT22;4507;40.232;29.132;2023-04-04T08:38:24;16.50;96.20
8945;DHT22;4507;40.232;29.132;2023-04-04T08:40:55;16.50;96.20
8945;DHT22;4507;40.232;29.132;2023-04-04T08:43:33;16.50;96.20
8945;DHT22;4507;40.232;29.132;2023-04-04T08:46:05;16.60;96.20
8945;DHT22;4507;40.232;29.132;2023-04-04T08:48:38;16.60;96.30
8945;DHT22;4507;40.232;29.132;2023-04-04T08:51:12;16.70;96.30
8945;DHT22;4507;40.232;29.132;2023-04-04T08:53:42;16.80;96.20
8945;DHT22;4507;40.232;29.132;2023-04-04T08:56:11;16.80;95.90
8945;DHT22;4507;40.232;29.132;2023-04-04T08:58:41;16.80;95.40
8945;DHT22;4507;40.232;29.132;2023-04-04T09:01:10;16.80;95.00
8945;DHT22;4507;40.232;29.132;2023-04-04T09:03:40;16.80;94.80
8945;DHT22;4507;40.232;29.132;2023-04-04T09:06:11;16.70;94.60
8945;DHT22;4507;40.232;29.132;2023-04-04T09:08:42;16.70;94.40
8945;DHT22;4507;40.232;29.132;2023-04-04T09:11:13;16.60;94.30
8945;DHT22;4507;40.232;29.132;2023-04-04T09:14:01;16.40;94.20
8945;DHT22;4507;40.232;29.132;2023-04-04T09:16:31;16.40;94.30
8945;DHT22;4507;40.232;29.132;2023-04-04T09:19:00;16.30;94.30
8945;DHT22;4507;40.232;29.132;2023-04-04T09:21:32;16.20;94.40
8945;DHT22;4507;40.232;29.132;2023-04-04T09:24:04;16.10;94.50
8945;DHT22;4507;40.232;29.132;2023-04-04T09:26:46;16.10;94.60
8945;DHT22;4507;40.232;29.132;2023-04-04T09:29:17;16.10;94.70
8945;DHT22;4507;40.232;29.132;2023-04-04T09:31:47;16.00;94.80
8945;DHT22;4507;40.232;29.132;2023-04-04T09:34:20;16.00;94.90
8945;DHT22;4507;40.232;29.132;2023-04-04T09:36:56;16.10;95.10
8945;DHT22;4507;40.232;29.132;2023-04-04T09:39:37;16.10;95.30
8945;DHT22;4507;40.232;29.132;2023-04-04T09:42:08;16.20;95.50
8945;DHT22;4507;40.232;29.132;2023-04-04T09:44:37;16.20;95.60
8945;DHT22;4507;40.232;29.132;2023-04-04T09:47:24;16.30;95.50
8945;DHT22;4507;40.232;29.132;2023-04-04T09:50:21;16.40;95.30
8945;DHT22;4507;40.232;29.132;2023-04-04T09:52:55;16.40;95.10
8945;DHT22;4507;40.232;29.132;2023-04-04T09:55:32;16.30;95.00
8945;DHT22;4507;40.232;29.132;2023-04-04T09:58:11;16.40;95.40
8945;DHT22;4507;40.232;29.132;2023-04-04T10:00:45;16.40;95.60
8945;DHT22;4507;40.232;29.132;2023-04-04T10:03:33;16.50;95.60
8945;DHT22;4507;40.232;29.132;2023-04-04T10:06:06;16.50;95.70
8945;DHT22;4507;40.232;29.132;2023-04-04T10:08:39;16.50;95.90
8945;DHT22;4507;40.232;29.132;2023-04-04T10:11:10;16.60;95.80
8945;DHT22;4507;40.232;29.132;2023-04-04T10:13:39;16.70;95.60
8945;DHT22;4507;40.232;29.132;2023-04-04T10:16:11;16.80;95.50
8945;DHT22;4507;40.232;29.132;2023-04-04T10:18:41;16.90;95.50
8945;DHT22;4507;40.232;29.132;2023-04-04T10:21:11;17.00;95.80
8945;DHT22;4507;40.232;29.132;2023-04-04T10:23:45;17.10;96.00
8945;DHT22;4507;40.232;29.132;2023-04-04T10:26:14;17.20;96.10
8945;DHT22;4507;40.232;29.132;2023-04-04T10:28:43;17.50;96.00
8945;DHT22;4507;40.232;29.132;2023-04-04T10:31:19;17.60;95.90
8945;DHT22;4507;40.232;29.132;2023-04-04T10:33:59;17.90;95.50
8945;DHT22;4507;40.232;29.132;2023-04-04T10:36:37;18.10;95.20
8945;DHT22;4507;40.232;29.132;2023-04-04T10:39:13;18.30;94.30
8945;DHT22;4507;40.232;29.132;2023-04-04T10:41:44;18.40;94.00
8945;DHT22;4507;40.232;29.132;2023-04-04T10:44:19;18.50;93.40
8945;DHT22;4507;40.232;29.132;2023-04-04T10:46:52;18.50;92.70
8945;DHT22;4507;40.232;29.132;2023-04-04T10:49:22;18.60;92.50
8945;DHT22;4507;40.232;29.132;2023-04-04T10:51:51;18.60;92.10
8945;DHT22;4507;40.232;29.132;2023-04-04T10:54:26;18.50;91.40
8945;DHT22;4507;40.232;29.132;2023-04-04T10:56:57;18.40;91.00
8945;DHT22;4507;40.232;29.132;2023-04-04T10:59:29;18.30;90.80
8945;DHT22;4507;40.232;29.132;2023-04-04T11:01:59;18.10;90.80
8945;DHT22;4507;40.232;29.132;2023-04-04T11:04:31;18.00;90.90
8945;DHT22;4507;40.232;29.132;2023-04-04T11:07:09;17.90;91.30
8945;DHT22;4507;40.232;29.132;2023-04-04T11:09:53;17.90;91.70
8945;DHT22;4507;40.232;29.132;2023-04-04T11:12:28;17.90;92.30
8945;DHT22;4507;40.232;29.132;2023-04-04T11:15:07;17.90;92.50
8945;DHT22;4507;40.232;29.132;2023-04-04T11:20:31;18.10;94.10
8945;DHT22;4507;40.232;29.132;2023-04-04T11:23:04;18.40;95.50
8945;DHT22;4507;40.232;29.132;2023-04-04T11:25:39;18.80;96.10
8945;DHT22;4507;40.232;29.132;2023-04-04T11:28:13;19.20;95.20
8945;DHT22;4507;40.232;29.132;2023-04-04T11:30:43;19.40;92.80
8945;DHT22;4507;40.232;29.132;2023-04-04T11:33:25;19.50;91.40
8945;DHT22;4507;40.232;29.132;2023-04-04T11:35:59;19.50;90.40
8945;DHT22;4507;40.232;29.132;2023-04-04T11:38:35;19.40;89.80
8945;DHT22;4507;40.232;29.132;2023-04-04T11:41:09;19.20;89.90
8945;DHT22;4507;40.232;29.132;2023-04-04T11:43:44;19.10;90.00
8945;DHT22;4507;40.232;29.132;2023-04-04T11:46:16;19.10;90.10
8945;DHT22;4507;40.232;29.132;2023-04-04T11:48:46;19.00;90.00
8945;DHT22;4507;40.232;29.132;2023-04-04T11:51:17;19.00;90.60
8945;DHT22;4507;40.232;29.132;2023-04-04T11:53:46;19.10;90.80
8945;DHT22;4507;40.232;29.132;2023-04-04T11:56:18;19.20;90.60
8945;DHT22;4507;40.232;29.132;2023-04-04T11:58:47;19.30;90.30
8945;DHT22;4507;40.232;29.132;2023-04-04T12:01:31;19.40;90.10
8945;DHT22;4507;40.232;29.132;2023-04-04T12:04:00;19.40;90.20
8945;DHT22;4507;40.232;29.132;2023-04-04T12:06:29;19.50;90.30
8945;DHT22;4507;40.232;29.132;2023-04-04T12:09:01;19.60;90.20
8945;DHT22;4507;40.232;29.132;2023-04-04T12:11:33;19.70;89.60
8945;DHT22;4507;40.232;29.132;2023-04-04T12:14:15;19.80;88.40
8945;DHT22;4507;40.232;29.132;2023-04-04T12:16:50;19.80;87.40
8945;DHT22;4507;40.232;29.132;2023-04-04T12:19:22;19.80;86.60
8945;DHT22;4507;40.232;29.132;2023-04-04T12:21:52;19.80;85.60
8945;DHT22;4507;40.232;29.132;2023-04-04T12:24:22;19.80;84.50
8945;DHT22;4507;40.232;29.132;2023-04-04T12:26:52;19.70;84.20
8945;DHT22;4507;40.232;29.132;2023-04-04T12:29:22;19.60;83.70
8945;DHT22;4507;40.232;29.132;2023-04-04T12:31:54;19.60;84.00
8945;DHT22;4507;40.232;29.132;2023-04-04T12:34:28;19.60;85.20
8945;DHT22;4507;40.232;29.132;2023-04-04T12:36:59;19.50;84.30
8945;DHT22;4507;40.232;29.132;2023-04-04T12:39:29;19.50;83.90
8945;DHT22;4507;40.232;29.132;2023-04-04T12:42:01;19.60;84.10
8945;DHT22;4507;40.232;29.132;2023-04-04T12:44:33;19.60;84.40
8945;DHT22;4507;40.232;29.132;2023-04-04T12:47:03;19.60;84.50
8945;DHT22;4507;40.232;29.132;2023-04-04T12:49:38;19.60;84.30
8945;DHT22;4507;40.232;29.132;2023-04-04T12:52:16;19.60;84.20
8945;DHT22;4507;40.232;29.132;2023-04-04T12:54:46;19.60;84.20
8945;DHT22;4507;40.232;29.132;2023-04-04T12:57:38;19.60;84.40
8945;DHT22;4507;40.232;29.132;2023-04-04T13:00:08;19.60;83.90
8945;DHT22;4507;40.232;29.132;2023-04-04T13:02:38;19.60;83.00
8945;DHT22;4507;40.232;29.132;2023-04-04T13:05:08;19.60;83.10
8945;DHT22;4507;40.232;29.132;2023-04-04T13:07:38;19.60;82.30
8945;DHT22;4507;40.232;29.132;2023-04-04T13:10:12;19.60;81.90
8945;DHT22;4507;40.232;29.132;2023-04-04T13:12:55;19.60;82.00
8945;DHT22;4507;40.232;29.132;2023-04-04T13:15:49;19.60;82.60
8945;DHT22;4507;40.232;29.132;2023-04-04T13:18:20;19.60;82.20
8945;DHT22;4507;40.232;29.132;2023-04-04T13:20:50;19.60;82.30
8945;DHT22;4507;40.232;29.132;2023-04-04T13:23:20;19.60;82.30
8945;DHT22;4507;40.232;29.132;2023-04-04T13:25:49;19.60;82.50
8945;DHT22;4507;40.232;29.132;2023-04-04T13:28:19;19.50;82.50
8945;DHT22;4507;40.232;29.132;2023-04-04T13:30:48;19.50;82.50
8945;DHT22;4507;40.232;29.132;2023-04-04T13:33:18;19.50;82.30
8945;DHT22;4507;40.232;29.132;2023-04-04T13:35:49;19.40;82.20
8945;DHT22;4507;40.232;29.132;2023-04-04T13:38:18;19.30;82.30
8945;DHT22;4507;40.232;29.132;2023-04-04T13:40:47;19.20;82.40
8945;DHT22;4507;40.232;29.132;2023-04-04T13:43:16;19.10;82.50
8945;DHT22;4507;40.232;29.132;2023-04-04T13:45:47;19.10;82.60
8945;DHT22;4507;40.232;29.132;2023-04-04T13:48:16;19.00;82.70
8945;DHT22;4507;40.232;29.132;2023-04-04T13:50:46;18.90;82.90
8945;DHT22;4507;40.232;29.132;2023-04-04T13:53:18;18.80;83.20
8945;DHT22;4507;40.232;29.132;2023-04-04T13:55:47;18.80;83.50
8945;DHT22;4507;40.232;29.132;2023-04-04T13:58:36;18.70;83.60
8945;DHT22;4507;40.232;29.132;2023-04-04T14:01:06;18.70;83.90
8945;DHT22;4507;40.232;29.132;2023-04-04T14:03:36;18.60;84.40
8945;DHT22;4507;40.232;29.132;2023-04-04T14:06:05;18.50;85.20
8945;DHT22;4507;40.232;29.132;2023-04-04T14:08:37;18.50;86.40
8945;DHT22;4507;40.232;29.132;2023-04-04T14:11:06;18.40;87.10
8945;DHT22;4507;40.232;29.132;2023-04-04T14:13:36;18.30;87.70
8945;DHT22;4507;40.232;29.132;2023-04-04T14:16:07;18.20;88.60
8945;DHT22;4507;40.232;29.132;2023-04-04T14:18:36;18.10;89.50
8945;DHT22;4507;40.232;29.132;2023-04-04T14:21:05;18.10;90.30
8945;DHT22;4507;40.232;29.132;2023-04-04T14:23:34;18.00;90.90
8945;DHT22;4507;40.232;29.132;2023-04-04T14:26:22;17.90;91.30
8945;DHT22;4507;40.232;29.132;2023-04-04T14:28:56;17.80;91.70
8945;DHT22;4507;40.232;29.132;2023-04-04T14:31:26;17.70;92.20
8945;DHT22;4507;40.232;29.132;2023-04-04T14:33:55;17.60;92.70
8945;DHT22;4507;40.232;29.132;2023-04-04T14:36:24;17.50;93.20
8945;DHT22;4507;40.232;29.132;2023-04-04T14:38:53;17.40;93.60
8945;DHT22;4507;40.232;29.132;2023-04-04T14:41:23;17.40;94.00
8945;DHT22;4507;40.232;29.132;2023-04-04T14:43:52;17.30;94.50
8945;DHT22;4507;40.232;29.132;2023-04-04T14:46:21;17.30;95.00
8945;DHT22;4507;40.232;29.132;2023-04-04T14:48:52;17.20;95.40
8945;DHT22;4507;40.232;29.132;2023-04-04T14:51:21;17.10;95.70
8945;DHT22;4507;40.232;29.132;2023-04-04T14:53:51;17.10;96.20
8945;DHT22;4507;40.232;29.132;2023-04-04T14:56:20;17.10;96.60
8945;DHT22;4507;40.232;29.132;2023-04-04T14:58:49;17.00;96.90
8945;DHT22;4507;40.232;29.132;2023-04-04T15:01:19;17.00;97.20
8945;DHT22;4507;40.232;29.132;2023-04-04T15:03:49;17.00;97.50
8945;DHT22;4507;40.232;29.132;2023-04-04T15:06:19;17.00;97.70
8945;DHT22;4507;40.232;29.132;2023-04-04T15:08:49;16.90;97.80
8945;DHT22;4507;40.232;29.132;2023-04-04T15:11:18;16.90;98.00
8945;DHT22;4507;40.232;29.132;2023-04-04T15:13:47;16.90;98.30
8945;DHT22;4507;40.232;29.132;2023-04-04T15:16:16;16.90;98.50
8945;DHT22;4507;40.232;29.132;2023-04-04T15:18:45;16.80;98.80
8945;DHT22;4507;40.232;29.132;2023-04-04T15:21:17;16.80;99.00
8945;DHT22;4507;40.232;29.132;2023-04-04T15:23:47;16.70;99.10
8945;DHT22;4507;40.232;29.132;2023-04-04T15:26:16;16.60;99.50
8945;DHT22;4507;40.232;29.132;2023-04-04T15:28:48;16.60;99.70
8945;DHT22;4507;40.232;29.132;2023-04-04T15:31:17;16.60;99.90
8945;DHT22;4507;40.232;29.132;2023-04-04T15:33:47;16.50;99.90
8945;DHT22;4507;40.232;29.132;2023-04-04T15:36:17;16.50;99.90
8945;DHT22;4507;40.232;29.132;2023-04-04T15:38:47;16.40;99.90
8945;DHT22;4507;40.232;29.132;2023-04-04T15:41:19;16.30;99.90
8945;DHT22;4507;40.232;29.132;2023-04-04T15:43:50;16.30;99.90
8945;DHT22;4507;40.232;29.132;2023-04-04T15:46:19;16.30;99.90
8945;DHT22;4507;40.232;29.132;2023-04-04T15:48:48;16.20;99.90
8945;DHT22;4507;40.232;29.132;2023-04-04T15:51:19;16.20;99.90
8945;DHT22;4507;40.232;29.132;2023-04-04T15:53:53;16.20;99.90
8945;DHT22;4507;40.232;29.132;2023-04-04T15:56:22;16.20;99.90
8945;DHT22;4507;40.232;29.132;2023-04-04T15:58:51;16.10;99.90
8945;DHT22;4507;40.232;29.132;2023-04-04T16:01:22;16.10;99.90
8945;DHT22;4507;40.232;29.132;2023-04-04T16:03:51;16.00;99.90
8945;DHT22;4507;40.232;29.132;2023-04-04T16:06:20;16.00;99.90
8945;DHT22;4507;40.232;29.132;2023-04-04T16:08:51;15.90;99.90
8945;DHT22;4507;40.232;29.132;2023-04-04T16:11:22;15.90;99.90
8945;DHT22;4507;40.232;29.132;2023-04-04T16:13:51;15.80;99.90
8945;DHT22;4507;40.232;29.132;2023-04-04T16:16:20;15.70;99.90